createdAt,value
2023-05-14T00:02:14.481Z,11.70
2023-05-14T00:04:41.742Z,11.70
2023-05-14T00:07:08.940Z,11.60
2023-05-14T00:09:36.149Z,11.60
2023-05-14T00:12:03.510Z,11.70
2023-05-14T00:14:30.617Z,11.70
2023-05-14T00:16:58.380Z,11.60
2023-05-14T00:19:26.197Z,11.60
2023-05-14T00:21:53.362Z,11.70
2023-05-14T00:24:20.399Z,11.70
2023-05-14T00:26:47.640Z,11.70
2023-05-14T00:29:14.721Z,11.60
2023-05-14T00:31:41.910Z,11.60
2023-05-14T00:34:09.088Z,11.60
2023-05-14T00:36:36.187Z,11.60
2023-05-14T00:39:03.807Z,11.60
2023-05-14T00:41:30.960Z,11.60
2023-05-14T00:43:57.999Z,11.60
2023-05-14T00:46:25.620Z,11.60
2023-05-14T00:48:52.786Z,11.60
2023-05-14T00:51:20.624Z,11.50
2023-05-14T00:53:48.386Z,11.50
2023-05-14T00:56:16.713Z,11.50
2023-05-14T00:58:43.829Z,11.60
2023-05-14T01:01:12.277Z,11.60
2023-05-14T01:03:39.655Z,11.70
2023-05-14T01:06:24.599Z,11.70
2023-05-14T01:09:30.128Z,11.70
2023-05-14T01:12:34.778Z,11.70
2023-05-14T01:15:09.247Z,11.60
2023-05-14T01:17:53.902Z,11.60
2023-05-14T01:20:22.323Z,11.50
2023-05-14T01:22:49.611Z,11.50
2023-05-14T01:25:16.985Z,11.50
2023-05-14T01:28:11.226Z,11.50
2023-05-14T01:31:05.076Z,11.50
2023-05-14T01:33:34.384Z,11.50
2023-05-14T01:36:02.652Z,11.50
2023-05-14T01:38:31.762Z,11.50
2023-05-14T01:41:00.155Z,11.40
2023-05-14T01:43:27.879Z,11.40
2023-05-14T01:45:55.719Z,11.50
2023-05-14T01:48:22.933Z,11.60
2023-05-14T01:50:50.051Z,11.60
2023-05-14T01:53:17.116Z,11.60
2023-05-14T01:55:44.242Z,11.50
2023-05-14T01:58:11.360Z,11.50
2023-05-14T02:00:38.488Z,11.40
2023-05-14T02:03:05.707Z,11.40
2023-05-14T02:05:33.084Z,11.40
2023-05-14T02:08:00.168Z,11.40
2023-05-14T02:10:27.325Z,11.30
2023-05-14T02:12:56.299Z,11.30
2023-05-14T02:15:23.547Z,11.30
2023-05-14T02:17:50.811Z,11.20
2023-05-14T02:20:18.095Z,11.30
2023-05-14T02:22:46.466Z,11.30
2023-05-14T02:25:13.600Z,11.20
2023-05-14T02:27:40.736Z,11.10
2023-05-14T02:30:09.278Z,11.20
2023-05-14T02:32:37.061Z,11.20
2023-05-14T02:35:04.546Z,11.20
2023-05-14T02:37:31.661Z,11.20
2023-05-14T02:39:58.819Z,11.30
2023-05-14T02:42:26.120Z,11.30
2023-05-14T02:44:53.208Z,11.20
2023-05-14T02:47:20.402Z,11.20
2023-05-14T02:49:47.700Z,11.20
2023-05-14T02:52:14.821Z,11.20
2023-05-14T02:54:42.061Z,11.20
2023-05-14T02:57:09.281Z,11.30
2023-05-14T02:59:36.581Z,11.30
2023-05-14T03:02:04.344Z,11.30
2023-05-14T03:04:32.002Z,11.30
2023-05-14T03:06:59.372Z,11.30
2023-05-14T03:09:26.584Z,11.30
2023-05-14T03:11:55.192Z,11.30
2023-05-14T03:14:22.636Z,11.30
2023-05-14T03:16:50.147Z,11.30
2023-05-14T03:19:18.392Z,11.40
2023-05-14T03:21:45.713Z,11.40
2023-05-14T03:24:12.882Z,11.40
2023-05-14T03:26:39.963Z,11.40
2023-05-14T03:29:07.894Z,11.40
2023-05-14T03:31:34.975Z,11.40
2023-05-14T03:34:02.203Z,11.30
2023-05-14T03:36:29.309Z,11.30
2023-05-14T03:38:56.490Z,11.30
2023-05-14T03:41:23.608Z,11.20
2023-05-14T03:43:50.645Z,11.10
2023-05-14T03:46:17.824Z,11.20
2023-05-14T03:48:45.043Z,11.30
2023-05-14T03:51:12.782Z,11.30
2023-05-14T03:53:39.859Z,11.30
2023-05-14T03:56:07.478Z,11.30
2023-05-14T03:58:34.572Z,11.40
2023-05-14T04:01:01.757Z,11.30
2023-05-14T04:03:29.144Z,11.30
2023-05-14T04:05:57.278Z,11.30
2023-05-14T04:08:24.343Z,11.30
2023-05-14T04:10:51.633Z,11.40
2023-05-14T04:13:18.793Z,11.40
2023-05-14T04:15:46.054Z,11.30
2023-05-14T04:18:14.029Z,11.30
2023-05-14T04:20:41.292Z,11.30
2023-05-14T04:23:08.509Z,11.40
2023-05-14T04:25:35.666Z,11.40
2023-05-14T04:28:02.876Z,11.50
2023-05-14T04:30:30.263Z,11.40
2023-05-14T04:32:57.488Z,11.30
2023-05-14T04:35:25.313Z,11.30
2023-05-14T04:37:52.524Z,11.30
2023-05-14T04:40:19.912Z,11.30
2023-05-14T04:42:47.015Z,11.30
2023-05-14T04:45:14.637Z,11.30
2023-05-14T04:47:42.126Z,11.30
2023-05-14T04:50:10.041Z,11.30
2023-05-14T04:52:38.396Z,11.30
2023-05-14T04:55:06.722Z,11.30
2023-05-14T04:57:34.058Z,11.30
2023-05-14T05:00:01.248Z,11.40
2023-05-14T05:02:28.420Z,11.40
2023-05-14T05:04:55.491Z,11.40
2023-05-14T05:07:22.625Z,11.30
2023-05-14T05:09:49.800Z,11.20
2023-05-14T05:12:16.933Z,11.20
2023-05-14T05:14:44.062Z,11.30
2023-05-14T05:17:11.158Z,11.30
2023-05-14T05:19:43.772Z,11.40
2023-05-14T05:22:11.789Z,11.40
2023-05-14T05:24:38.935Z,11.40
2023-05-14T05:27:06.258Z,11.50
2023-05-14T05:29:33.477Z,11.50
2023-05-14T05:32:00.973Z,11.50
2023-05-14T05:34:28.361Z,11.50
2023-05-14T05:36:55.524Z,11.50
2023-05-14T05:39:22.641Z,11.60
2023-05-14T05:41:49.758Z,11.70
2023-05-14T05:44:16.828Z,11.60
2023-05-14T05:46:43.971Z,11.70
2023-05-14T05:49:11.079Z,11.70
2023-05-14T05:51:38.198Z,11.70
2023-05-14T05:54:05.347Z,11.70
2023-05-14T05:56:32.539Z,11.60
2023-05-14T05:58:59.637Z,11.50
2023-05-14T06:01:26.930Z,11.50
2023-05-14T06:03:53.985Z,11.60
2023-05-14T06:06:21.819Z,11.60
2023-05-14T06:08:49.112Z,11.50
2023-05-14T06:11:17.062Z,11.50
2023-05-14T06:13:44.420Z,11.60
2023-05-14T06:16:11.615Z,11.60
2023-05-14T06:18:38.859Z,11.60
2023-05-14T06:21:08.236Z,11.60
2023-05-14T06:23:35.341Z,11.60
2023-05-14T06:26:02.438Z,11.60
2023-05-14T06:28:29.559Z,11.60
2023-05-14T06:30:56.620Z,11.60
2023-05-14T06:33:30.874Z,11.50
2023-05-14T06:36:04.387Z,11.60
2023-05-14T06:38:31.897Z,11.60
2023-05-14T06:40:59.001Z,11.60
2023-05-14T06:43:26.213Z,11.60
2023-05-14T06:45:54.174Z,11.70
2023-05-14T06:48:21.797Z,11.80
2023-05-14T06:50:49.880Z,11.90
2023-05-14T06:53:17.042Z,11.80
2023-05-14T06:55:44.229Z,11.80
2023-05-14T06:58:11.326Z,11.80
2023-05-14T07:00:38.432Z,11.70
2023-05-14T07:03:05.946Z,11.80
2023-05-14T07:05:33.145Z,11.80
2023-05-14T07:08:00.393Z,11.80
2023-05-14T07:10:27.477Z,11.80
2023-05-14T07:12:55.128Z,11.80
2023-05-14T07:15:22.200Z,11.70
2023-05-14T07:17:49.658Z,11.70
2023-05-14T07:20:16.767Z,11.50
2023-05-14T07:22:43.922Z,11.50
2023-05-14T07:25:11.040Z,11.40
2023-05-14T07:27:38.217Z,11.50
2023-05-14T07:30:06.295Z,11.50
2023-05-14T07:32:33.596Z,11.50
2023-05-14T07:35:01.415Z,11.60
2023-05-14T07:37:28.612Z,11.50
2023-05-14T07:39:56.161Z,11.60
2023-05-14T07:42:34.961Z,11.80
2023-05-14T07:45:04.612Z,11.80
2023-05-14T07:47:32.062Z,11.90
2023-05-14T07:49:59.631Z,11.90
2023-05-14T07:52:26.702Z,12.00
2023-05-14T07:54:53.896Z,12.10
2023-05-14T07:57:22.057Z,12.10
2023-05-14T07:59:49.565Z,12.10
2023-05-14T08:02:17.059Z,12.00
2023-05-14T08:04:44.907Z,12.10
2023-05-14T08:07:12.167Z,12.20
2023-05-14T08:09:39.370Z,12.30
2023-05-14T08:12:07.576Z,12.40
2023-05-14T08:14:34.772Z,12.50
2023-05-14T08:17:02.021Z,12.40
2023-05-14T08:19:29.096Z,12.50
2023-05-14T08:21:56.263Z,12.50
2023-05-14T08:24:23.421Z,12.60
2023-05-14T08:26:50.856Z,12.80
2023-05-14T08:29:18.093Z,13.00
2023-05-14T08:31:50.781Z,13.20
2023-05-14T08:34:18.850Z,13.40
2023-05-14T08:36:46.295Z,13.50
2023-05-14T08:39:13.854Z,13.50
2023-05-14T08:41:41.760Z,13.40
2023-05-14T08:44:26.845Z,13.40
2023-05-14T08:46:54.842Z,13.20
2023-05-14T08:49:43.015Z,12.90
2023-05-14T08:52:11.144Z,12.90
2023-05-14T08:54:39.195Z,13.10
2023-05-14T08:57:09.962Z,13.10
2023-05-14T08:59:37.840Z,13.30
2023-05-14T09:02:06.984Z,13.50
2023-05-14T09:04:35.142Z,13.50
2023-05-14T09:07:04.063Z,13.90
2023-05-14T09:09:31.700Z,13.80
2023-05-14T09:11:58.948Z,13.80
2023-05-14T09:14:26.313Z,13.70
2023-05-14T09:16:54.790Z,13.80
2023-05-14T09:19:22.351Z,13.70
2023-05-14T09:21:50.010Z,13.60
2023-05-14T09:24:22.525Z,13.60
2023-05-14T09:26:58.024Z,13.90
2023-05-14T09:29:26.325Z,14.50
2023-05-14T09:31:54.778Z,14.70
2023-05-14T09:34:31.349Z,14.80
2023-05-14T09:37:01.846Z,15.00
2023-05-14T09:39:29.841Z,15.10
2023-05-14T09:41:57.280Z,14.90
2023-05-14T09:44:25.215Z,14.80
2023-05-14T09:46:56.107Z,14.60
2023-05-14T09:49:23.381Z,14.40
2023-05-14T09:51:51.364Z,14.20
2023-05-14T09:54:18.703Z,14.00
2023-05-14T09:56:45.876Z,13.90
2023-05-14T09:59:13.292Z,13.90
2023-05-14T10:01:44.169Z,13.80
2023-05-14T10:04:11.911Z,13.70
2023-05-14T10:06:40.154Z,13.70
2023-05-14T10:09:19.688Z,14.00
2023-05-14T10:11:53.065Z,14.30
2023-05-14T10:14:57.241Z,14.50
2023-05-14T10:17:28.191Z,14.80
2023-05-14T10:19:59.090Z,15.10
2023-05-14T10:22:34.241Z,15.30
2023-05-14T10:25:04.008Z,15.50
2023-05-14T10:27:31.532Z,15.70
2023-05-14T10:29:58.753Z,15.60
2023-05-14T10:32:26.610Z,15.60
2023-05-14T10:34:54.190Z,15.60
2023-05-14T10:37:25.539Z,15.60
2023-05-14T10:40:02.462Z,15.80
2023-05-14T10:42:35.947Z,16.00
2023-05-14T10:45:08.246Z,15.90
2023-05-14T10:47:41.324Z,15.70
2023-05-14T10:50:15.054Z,15.40
2023-05-14T10:52:46.244Z,15.50
2023-05-14T10:55:16.170Z,15.80
2023-05-14T10:57:45.706Z,16.10
2023-05-14T11:00:14.719Z,16.10
2023-05-14T11:02:44.578Z,16.10
2023-05-14T11:05:17.669Z,16.20
2023-05-14T11:07:49.992Z,16.30
2023-05-14T11:10:20.122Z,16.40
2023-05-14T11:12:49.971Z,16.60
2023-05-14T11:15:21.011Z,16.70
2023-05-14T11:17:50.363Z,16.80
2023-05-14T11:20:18.481Z,16.80
2023-05-14T11:22:48.024Z,16.80
2023-05-14T11:25:15.969Z,16.80
2023-05-14T11:27:45.663Z,16.70
2023-05-14T11:30:18.733Z,16.60
2023-05-14T11:32:48.178Z,16.60
2023-05-14T11:35:15.797Z,16.80
2023-05-14T11:37:43.846Z,17.00
2023-05-14T11:40:17.014Z,17.10
2023-05-14T11:42:44.340Z,17.00
2023-05-14T11:45:13.467Z,17.10
2023-05-14T11:47:42.588Z,17.20
2023-05-14T11:50:11.168Z,17.20
2023-05-14T11:52:41.782Z,17.40
2023-05-14T11:55:13.161Z,17.50
2023-05-14T11:57:41.161Z,17.50
2023-05-14T12:00:14.522Z,17.60
2023-05-14T12:02:41.799Z,17.60
2023-05-14T12:05:12.966Z,17.30
2023-05-14T12:07:40.384Z,17.40
2023-05-14T12:10:08.377Z,17.60
2023-05-14T12:12:39.515Z,17.70
2023-05-14T12:15:14.638Z,17.70
2023-05-14T12:17:42.319Z,17.70
2023-05-14T12:20:11.541Z,17.70
2023-05-14T12:22:39.438Z,17.60
2023-05-14T12:25:15.333Z,17.70
2023-05-14T12:27:45.361Z,17.70
2023-05-14T12:30:21.265Z,17.60
2023-05-14T12:32:52.020Z,17.70
2023-05-14T12:35:21.327Z,17.80
2023-05-14T12:37:48.529Z,18.10
2023-05-14T12:40:15.585Z,18.20
2023-05-14T12:42:42.633Z,18.20
2023-05-14T12:45:10.584Z,18.10
2023-05-14T12:47:37.911Z,18.20
2023-05-14T12:50:06.270Z,18.30
2023-05-14T12:52:38.582Z,18.40
2023-05-14T12:55:10.284Z,18.50
2023-05-14T12:57:38.834Z,18.60
2023-05-14T13:00:08.570Z,18.70
2023-05-14T13:02:42.810Z,18.80
2023-05-14T13:05:11.734Z,18.90
2023-05-14T13:07:39.191Z,19.10
2023-05-14T13:10:07.171Z,19.20
2023-05-14T13:12:34.603Z,19.20
2023-05-14T13:15:01.746Z,19.40
2023-05-14T13:17:28.883Z,19.50
2023-05-14T13:19:56.082Z,19.50
2023-05-14T13:22:23.201Z,19.50
2023-05-14T13:24:50.331Z,19.50
2023-05-14T13:27:17.426Z,19.50
2023-05-14T13:29:44.618Z,19.90
2023-05-14T13:32:11.785Z,20.10
2023-05-14T13:34:38.837Z,20.30
2023-05-14T13:37:07.434Z,20.40
2023-05-14T13:39:34.624Z,20.50
2023-05-14T13:42:01.740Z,20.40
2023-05-14T13:44:29.471Z,20.50
2023-05-14T13:46:56.579Z,20.70
2023-05-14T13:49:23.735Z,20.80
2023-05-14T13:51:50.884Z,20.90
2023-05-14T13:54:18.875Z,20.80
2023-05-14T13:56:46.034Z,20.90
2023-05-14T13:59:13.248Z,20.90
2023-05-14T14:01:40.437Z,21.10
2023-05-14T14:04:07.541Z,21.40
2023-05-14T14:06:34.649Z,21.50
2023-05-14T14:09:01.861Z,21.30
2023-05-14T14:11:29.051Z,21.30
2023-05-14T14:13:56.146Z,21.10
2023-05-14T14:16:23.418Z,21.20
2023-05-14T14:18:50.815Z,21.30
2023-05-14T14:21:18.558Z,21.20
2023-05-14T14:23:49.096Z,21.20
2023-05-14T14:26:16.276Z,21.50
2023-05-14T14:28:43.333Z,21.70
2023-05-14T14:31:11.512Z,21.70
2023-05-14T14:33:38.796Z,21.80
2023-05-14T14:36:06.737Z,21.80
2023-05-14T14:38:33.816Z,21.90
2023-05-14T14:41:03.211Z,21.70
2023-05-14T14:43:30.488Z,21.70
2023-05-14T14:45:57.690Z,21.70
2023-05-14T14:48:39.106Z,21.70
2023-05-14T14:51:08.516Z,21.60
2023-05-14T14:53:37.025Z,21.80
2023-05-14T14:56:04.751Z,21.70
2023-05-14T14:58:32.591Z,21.70
2023-05-14T15:01:00.341Z,21.70
2023-05-14T15:03:27.477Z,21.60
2023-05-14T15:05:54.706Z,21.50
2023-05-14T15:08:27.430Z,21.70
2023-05-14T15:10:56.358Z,21.80
2023-05-14T15:13:24.546Z,21.90
2023-05-14T15:15:52.670Z,21.60
2023-05-14T15:18:20.180Z,21.20
2023-05-14T15:20:47.478Z,21.00
2023-05-14T15:23:14.577Z,21.10
2023-05-14T15:25:41.663Z,21.00
2023-05-14T15:28:08.983Z,20.90
2023-05-14T15:30:36.096Z,21.00
2023-05-14T15:33:06.297Z,21.00
2023-05-14T15:35:33.587Z,20.90
2023-05-14T15:38:00.706Z,20.80
2023-05-14T15:40:30.411Z,20.70
2023-05-14T15:42:57.679Z,20.60
2023-05-14T15:45:28.236Z,20.50
2023-05-14T15:48:05.228Z,20.40
2023-05-14T15:50:38.535Z,20.30
2023-05-14T15:53:13.285Z,20.00
2023-05-14T15:55:42.974Z,19.80
2023-05-14T15:58:11.458Z,19.90
2023-05-14T16:00:43.596Z,20.00
2023-05-14T16:03:13.638Z,19.80
2023-05-14T16:05:42.805Z,19.80
2023-05-14T16:08:25.491Z,19.80
2023-05-14T16:11:00.538Z,19.50
2023-05-14T16:13:28.145Z,19.20
2023-05-14T16:16:01.625Z,19.00
2023-05-14T16:18:31.661Z,19.00
2023-05-14T16:21:03.132Z,18.90
2023-05-14T16:23:35.533Z,19.20
2023-05-14T16:26:07.989Z,19.20
2023-05-14T16:28:47.535Z,19.20
2023-05-14T16:31:47.778Z,19.30
2023-05-14T16:34:18.765Z,19.40
2023-05-14T16:36:50.256Z,19.40
2023-05-14T16:39:29.002Z,19.60
2023-05-14T16:42:11.773Z,19.90
2023-05-14T16:44:42.278Z,19.60
2023-05-14T16:47:12.111Z,19.50
2023-05-14T16:49:44.811Z,19.50
2023-05-14T16:52:12.299Z,19.60
2023-05-14T16:54:48.628Z,19.80
2023-05-14T16:57:15.957Z,19.60
2023-05-14T16:59:43.142Z,19.50
2023-05-14T17:02:10.354Z,19.30
2023-05-14T17:04:40.876Z,19.00
2023-05-14T17:07:11.571Z,18.70
2023-05-14T17:09:38.645Z,18.30
2023-05-14T17:12:10.801Z,18.10
2023-05-14T17:14:43.401Z,18.10
2023-05-14T17:17:13.115Z,17.80
2023-05-14T17:19:50.762Z,17.80
2023-05-14T17:22:18.082Z,17.60
2023-05-14T17:24:45.364Z,17.50
2023-05-14T17:27:13.470Z,17.50
2023-05-14T17:29:41.973Z,17.40
2023-05-14T17:32:09.176Z,17.20
2023-05-14T17:34:36.224Z,17.20
2023-05-14T17:37:03.389Z,17.20
2023-05-14T17:39:30.528Z,17.00
2023-05-14T17:41:57.585Z,17.00
2023-05-14T17:44:24.783Z,16.90
2023-05-14T17:46:52.920Z,16.70
2023-05-14T17:49:20.051Z,16.60
2023-05-14T17:51:47.163Z,16.50
2023-05-14T17:54:14.252Z,16.50
2023-05-14T17:56:41.367Z,16.50
2023-05-14T17:59:08.514Z,16.50
2023-05-14T18:01:35.628Z,16.40
2023-05-14T18:04:02.817Z,16.30
2023-05-14T18:06:29.887Z,16.20
2023-05-14T18:08:57.015Z,16.00
2023-05-14T18:11:24.163Z,15.90
2023-05-14T18:13:51.312Z,15.70
2023-05-14T18:16:18.491Z,15.70
2023-05-14T18:18:45.681Z,15.70
2023-05-14T18:21:12.841Z,15.60
2023-05-14T18:23:39.918Z,15.50
2023-05-14T18:26:07.122Z,15.50
2023-05-14T18:28:34.334Z,15.40
2023-05-14T18:31:01.551Z,15.30
2023-05-14T18:33:29.407Z,15.20
2023-05-14T18:35:57.148Z,15.10
2023-05-14T18:38:24.264Z,15.10
2023-05-14T18:40:51.405Z,15.00
2023-05-14T18:43:19.916Z,15.00
2023-05-14T18:45:47.933Z,14.90
2023-05-14T18:48:16.406Z,14.80
2023-05-14T18:50:43.491Z,14.70
2023-05-14T18:53:10.663Z,14.60
2023-05-14T18:55:37.794Z,14.60
2023-05-14T18:58:05.010Z,14.60
2023-05-14T19:00:32.070Z,14.50
2023-05-14T19:02:59.272Z,14.40
2023-05-14T19:05:26.665Z,14.30
2023-05-14T19:07:53.923Z,14.20
2023-05-14T19:10:21.128Z,14.10
2023-05-14T19:12:48.329Z,14.10
2023-05-14T19:15:15.577Z,14.20
2023-05-14T19:17:42.862Z,14.20
2023-05-14T19:20:10.871Z,14.10
2023-05-14T19:22:38.078Z,14.00
2023-05-14T19:25:07.601Z,13.90
2023-05-14T19:27:37.938Z,13.80
2023-05-14T19:30:06.255Z,13.70
2023-05-14T19:32:33.351Z,13.70
2023-05-14T19:35:00.652Z,13.60
2023-05-14T19:37:27.752Z,13.50
2023-05-14T19:39:54.879Z,13.50
2023-05-14T19:42:22.068Z,13.50
2023-05-14T19:44:49.103Z,13.40
2023-05-14T19:47:16.243Z,13.30
2023-05-14T19:49:43.449Z,13.30
2023-05-14T19:52:11.475Z,13.20
2023-05-14T19:54:38.703Z,13.20
2023-05-14T19:57:06.214Z,13.10
2023-05-14T19:59:34.672Z,13.00
2023-05-14T20:02:02.440Z,12.90
2023-05-14T20:04:30.305Z,12.90
2023-05-14T20:06:58.204Z,12.80
2023-05-14T20:09:29.649Z,12.80
2023-05-14T20:11:57.410Z,12.70
2023-05-14T20:14:24.851Z,12.80
2023-05-14T20:16:53.128Z,12.80
2023-05-14T20:19:21.302Z,12.80
2023-05-14T20:21:49.206Z,12.80
2023-05-14T20:24:16.532Z,12.80
2023-05-14T20:26:43.906Z,12.80
2023-05-14T20:29:14.545Z,12.80
2023-05-14T20:31:42.181Z,12.70
2023-05-14T20:34:12.405Z,12.70
2023-05-14T20:36:39.592Z,12.50
2023-05-14T20:39:06.906Z,12.50
2023-05-14T20:41:34.106Z,12.50
2023-05-14T20:44:02.702Z,12.30
2023-05-14T20:46:30.472Z,12.30
2023-05-14T20:49:01.120Z,12.30
2023-05-14T20:51:28.867Z,12.20
2023-05-14T20:53:56.454Z,12.10
2023-05-14T20:56:23.690Z,12.10
2023-05-14T20:58:50.851Z,12.00
2023-05-14T21:01:19.303Z,12.00
2023-05-14T21:03:46.872Z,12.00
2023-05-14T21:06:14.278Z,11.90
2023-05-14T21:08:41.544Z,11.80
2023-05-14T21:11:08.714Z,11.60
2023-05-14T21:13:36.222Z,11.50
2023-05-14T21:16:03.598Z,11.50
2023-05-14T21:18:32.907Z,11.50
2023-05-14T21:21:00.243Z,11.50
2023-05-14T21:23:27.362Z,11.50
2023-05-14T21:25:55.021Z,11.40
2023-05-14T21:28:22.680Z,11.40
2023-05-14T21:30:51.234Z,11.40
2023-05-14T21:33:19.017Z,11.30
2023-05-14T21:35:46.137Z,11.30
2023-05-14T21:38:13.383Z,11.30
2023-05-14T21:40:40.542Z,11.30
2023-05-14T21:43:07.637Z,11.20
2023-05-14T21:45:35.874Z,11.20
2023-05-14T21:48:05.889Z,11.20
2023-05-14T21:50:33.159Z,11.10
2023-05-14T21:53:01.529Z,11.10
2023-05-14T21:55:29.119Z,11.10
2023-05-14T21:57:56.374Z,11.00
2023-05-14T22:00:24.095Z,10.90
2023-05-14T22:02:53.341Z,10.90
2023-05-14T22:05:21.245Z,10.80
2023-05-14T22:07:49.023Z,10.60
2023-05-14T22:10:16.651Z,10.60
2023-05-14T22:12:45.242Z,10.60
2023-05-14T22:15:12.911Z,10.70
2023-05-14T22:17:40.045Z,10.70
2023-05-14T22:20:07.762Z,10.60
2023-05-14T22:22:34.984Z,10.60
2023-05-14T22:25:03.388Z,10.50
2023-05-14T22:27:31.658Z,10.40
2023-05-14T22:29:59.170Z,10.40
2023-05-14T22:32:26.536Z,10.40
2023-05-14T22:34:53.627Z,10.40
2023-05-14T22:37:20.780Z,10.40
2023-05-14T22:39:47.903Z,10.30
2023-05-14T22:42:15.037Z,10.30
2023-05-14T22:44:42.136Z,10.20
2023-05-14T22:47:09.241Z,10.10
2023-05-14T22:49:36.352Z,10.10
2023-05-14T22:52:03.656Z,10.10
2023-05-14T22:54:30.824Z,10.00
2023-05-14T22:56:58.078Z,9.90
2023-05-14T22:59:25.197Z,9.80
2023-05-14T23:01:52.430Z,9.80
2023-05-14T23:04:19.568Z,9.80
2023-05-14T23:06:46.717Z,9.80
2023-05-14T23:09:13.765Z,9.80
2023-05-14T23:11:40.940Z,9.80
2023-05-14T23:14:08.102Z,9.80
2023-05-14T23:16:35.628Z,9.80
2023-05-14T23:19:03.111Z,9.80
2023-05-14T23:21:30.495Z,9.70
2023-05-14T23:23:57.563Z,9.70
2023-05-14T23:26:24.751Z,9.70
2023-05-14T23:28:53.862Z,9.70
2023-05-14T23:31:21.951Z,9.60
2023-05-14T23:33:49.020Z,9.60
2023-05-14T23:36:16.213Z,9.60
2023-05-14T23:38:43.623Z,9.50
2023-05-14T23:41:10.754Z,9.40
2023-05-14T23:43:37.932Z,9.30
2023-05-14T23:46:05.183Z,9.20
2023-05-14T23:48:32.758Z,9.20
2023-05-14T23:50:59.811Z,9.20
2023-05-14T23:53:26.991Z,9.20
2023-05-14T23:55:54.117Z,9.30
2023-05-14T23:58:21.273Z,9.20
